VOZ9291 YPPH-YANG
Flight info
| Callsign | VOZ9291 |
|---|---|
| Flight time | 1h 28m |
| Altitude | 37000 |
| Route | AVNEX Y15 ESDEG Y60 TUSVA DCT GOKUP |
| Aircraft | A320/M-SDE3FGHIRWY/LB1 |
Departure
| Time | 2026-05-06 15:27 |
|---|---|
| Airport | Perth International Airport (YPPH) |
Arrival
| Time | 2026-05-06 16:55 |
|---|---|
| Airport | West Angelas Airport (YANG) |
| Time | Latitude | Longitude | Altitude | Speed | Heading |
|---|---|---|---|---|---|
| 2026-05-06 15:11 | -31.94438 | 115.96973 | 68 ft | 0 kts | 194° |
| 2026-05-06 15:17 | -31.94416 | 115.96979 | 63 ft | 4 kts | 193° |
| 2026-05-06 15:17 | -31.94389 | 115.96987 | 60 ft | 4 kts | 198° |
| 2026-05-06 15:17 | -31.94366 | 115.96999 | 59 ft | 2 kts | 214° |
| 2026-05-06 15:17 | -31.94347 | 115.97010 | 58 ft | 4 kts | 193° |
| 2026-05-06 15:18 | -31.94341 | 115.97012 | 58 ft | 0 kts | 194° |
| 2026-05-06 15:21 | -31.94364 | 115.97001 | 61 ft | 5 kts | 214° |
| 2026-05-06 15:21 | -31.94372 | 115.96953 | 68 ft | 7 kts | 279° |
| 2026-05-06 15:21 | -31.94357 | 115.96887 | 64 ft | 9 kts | 284° |
| 2026-05-06 15:22 | -31.94339 | 115.96804 | 65 ft | 12 kts | 284° |
| 2026-05-06 15:22 | -31.94271 | 115.96787 | 64 ft | 13 kts | 14° |
| 2026-05-06 15:22 | -31.94175 | 115.96815 | 65 ft | 16 kts | 14° |
| 2026-05-06 15:22 | -31.94062 | 115.96847 | 66 ft | 18 kts | 14° |
| 2026-05-06 15:23 | -31.93931 | 115.96887 | 66 ft | 21 kts | 15° |
| 2026-05-06 15:23 | -31.93787 | 115.96927 | 66 ft | 22 kts | 12° |
| 2026-05-06 15:23 | -31.93638 | 115.96971 | 64 ft | 22 kts | 14° |
| 2026-05-06 15:23 | -31.93494 | 115.97013 | 65 ft | 21 kts | 14° |
| 2026-05-06 15:24 | -31.93342 | 115.97058 | 65 ft | 24 kts | 14° |
| 2026-05-06 15:24 | -31.93174 | 115.97107 | 63 ft | 26 kts | 14° |
| 2026-05-06 15:24 | -31.93010 | 115.97154 | 63 ft | 23 kts | 14° |
| 2026-05-06 15:24 | -31.92934 | 115.97105 | 65 ft | 11 kts | 283° |
| 2026-05-06 15:25 | -31.92928 | 115.97074 | 68 ft | 0 kts | 283° |
| 2026-05-06 15:25 | -31.92917 | 115.97022 | 62 ft | 16 kts | 284° |
| 2026-05-06 15:25 | -31.92885 | 115.96877 | 66 ft | 12 kts | 281° |
| 2026-05-06 15:25 | -31.92932 | 115.96825 | 61 ft | 12 kts | 191° |
| 2026-05-06 15:26 | -31.93074 | 115.96783 | 62 ft | 47 kts | 194° |
| 2026-05-06 15:26 | -31.93627 | 115.96624 | 62 ft | 113 kts | 194° |
| 2026-05-06 15:26 | -31.94563 | 115.96353 | 68 ft | 162 kts | 193° |
| 2026-05-06 15:26 | -31.95693 | 115.96009 | 523 ft | 169 kts | 191° |
| 2026-05-06 15:27 | -31.96847 | 115.95650 | 1136 ft | 174 kts | 190° |
| 2026-05-06 15:27 | -31.98026 | 115.95292 | 1780 ft | 178 kts | 187° |
| 2026-05-06 15:27 | -31.99310 | 115.94932 | 2053 ft | 201 kts | 186° |
| 2026-05-06 15:27 | -32.00762 | 115.94534 | 2373 ft | 227 kts | 188° |
| 2026-05-06 15:28 | -32.02239 | 115.93609 | 2783 ft | 262 kts | 223° |
| 2026-05-06 15:28 | -32.03111 | 115.91635 | 3309 ft | 284 kts | 262° |
| 2026-05-06 15:28 | -32.03071 | 115.89297 | 4147 ft | 288 kts | 282° |
| 2026-05-06 15:28 | -32.02627 | 115.87003 | 5164 ft | 287 kts | 287° |
| 2026-05-06 15:29 | -32.02091 | 115.84749 | 6195 ft | 285 kts | 286° |
| 2026-05-06 15:29 | -32.01582 | 115.82482 | 7132 ft | 287 kts | 283° |
| 2026-05-06 15:29 | -32.01137 | 115.80178 | 8002 ft | 290 kts | 281° |
| 2026-05-06 15:29 | -32.00753 | 115.77839 | 8847 ft | 292 kts | 279° |
| 2026-05-06 15:30 | -32.00410 | 115.75472 | 9728 ft | 294 kts | 278° |
| 2026-05-06 15:30 | -32.00090 | 115.73099 | 10402 ft | 305 kts | 277° |
| 2026-05-06 15:30 | -31.99757 | 115.70542 | 10653 ft | 327 kts | 277° |
| 2026-05-06 15:30 | -31.99411 | 115.67844 | 11174 ft | 337 kts | 278° |
| 2026-05-06 15:31 | -31.98992 | 115.65099 | 11823 ft | 343 kts | 280° |
| 2026-05-06 15:31 | -31.98504 | 115.62329 | 12460 ft | 349 kts | 281° |
| 2026-05-06 15:31 | -31.97975 | 115.59520 | 13139 ft | 353 kts | 281° |
| 2026-05-06 15:32 | -31.96878 | 115.53803 | 14406 ft | 365 kts | 283° |
| 2026-05-06 15:32 | -31.96011 | 115.50981 | 15045 ft | 368 kts | 294° |
| 2026-05-06 15:32 | -31.94829 | 115.48281 | 15650 ft | 372 kts | 297° |
| 2026-05-06 15:32 | -31.93628 | 115.45623 | 16279 ft | 375 kts | 300° |
| 2026-05-06 15:33 | -31.92059 | 115.43150 | 16864 ft | 379 kts | 313° |
| 2026-05-06 15:33 | -31.90070 | 115.41115 | 17495 ft | 382 kts | 326° |
| 2026-05-06 15:33 | -31.87735 | 115.39605 | 18054 ft | 386 kts | 339° |
| 2026-05-06 15:33 | -31.85187 | 115.38610 | 18687 ft | 387 kts | 343° |
| 2026-05-06 15:34 | -31.82599 | 115.37662 | 19215 ft | 391 kts | 343° |
| 2026-05-06 15:34 | -31.79996 | 115.36701 | 19804 ft | 394 kts | 343° |
| 2026-05-06 15:34 | -31.77371 | 115.35726 | 20330 ft | 397 kts | 343° |
| 2026-05-06 15:34 | -31.74708 | 115.34831 | 20907 ft | 399 kts | 349° |
| 2026-05-06 15:35 | -31.71938 | 115.34447 | 21422 ft | 401 kts | 0° |
| 2026-05-06 15:35 | -31.69152 | 115.34642 | 21958 ft | 403 kts | 8° |
| 2026-05-06 15:35 | -31.66396 | 115.35237 | 22496 ft | 403 kts | 18° |
| 2026-05-06 15:35 | -31.63759 | 115.36376 | 23013 ft | 404 kts | 28° |
| 2026-05-06 15:36 | -31.61259 | 115.37896 | 23544 ft | 407 kts | 30° |
| 2026-05-06 15:36 | -31.58742 | 115.39435 | 24065 ft | 410 kts | 29° |
| 2026-05-06 15:36 | -31.56200 | 115.40979 | 24498 ft | 412 kts | 30° |
| 2026-05-06 15:36 | -31.53643 | 115.42527 | 24934 ft | 415 kts | 29° |
| 2026-05-06 15:37 | -31.51070 | 115.44082 | 25354 ft | 418 kts | 29° |
| 2026-05-06 15:37 | -31.48481 | 115.45648 | 25765 ft | 420 kts | 29° |
| 2026-05-06 15:37 | -31.45906 | 115.47207 | 26170 ft | 423 kts | 29° |
| 2026-05-06 15:37 | -31.43284 | 115.48794 | 26566 ft | 426 kts | 29° |
| 2026-05-06 15:38 | -31.40646 | 115.50390 | 26959 ft | 429 kts | 29° |
| 2026-05-06 15:38 | -31.37989 | 115.51995 | 27345 ft | 431 kts | 29° |
| 2026-05-06 15:38 | -31.35314 | 115.53609 | 27728 ft | 434 kts | 29° |
| 2026-05-06 15:38 | -31.32622 | 115.55232 | 28095 ft | 436 kts | 28° |
| 2026-05-06 15:39 | -31.29913 | 115.56864 | 28460 ft | 439 kts | 28° |
| 2026-05-06 15:39 | -31.27191 | 115.58505 | 28832 ft | 442 kts | 28° |
| 2026-05-06 15:39 | -31.24454 | 115.60155 | 29224 ft | 444 kts | 28° |
| 2026-05-06 15:39 | -31.21706 | 115.61813 | 29605 ft | 446 kts | 28° |
| 2026-05-06 15:40 | -31.18937 | 115.63480 | 29967 ft | 448 kts | 28° |
| 2026-05-06 15:40 | -31.16155 | 115.65153 | 30340 ft | 451 kts | 28° |
| 2026-05-06 15:40 | -31.13357 | 115.66834 | 30673 ft | 453 kts | 28° |
| 2026-05-06 15:40 | -31.10546 | 115.68520 | 30981 ft | 455 kts | 28° |
| 2026-05-06 15:41 | -31.07725 | 115.70212 | 31284 ft | 457 kts | 28° |
| 2026-05-06 15:41 | -31.04890 | 115.71913 | 31575 ft | 460 kts | 28° |
| 2026-05-06 15:41 | -31.02077 | 115.73598 | 31958 ft | 459 kts | 28° |
| 2026-05-06 15:41 | -30.99240 | 115.75297 | 32380 ft | 458 kts | 28° |
| 2026-05-06 15:42 | -30.96401 | 115.76995 | 32786 ft | 458 kts | 28° |
| 2026-05-06 15:42 | -30.93558 | 115.78693 | 33151 ft | 459 kts | 28° |
| 2026-05-06 15:42 | -30.90715 | 115.80389 | 33543 ft | 459 kts | 27° |
| 2026-05-06 15:42 | -30.87876 | 115.82081 | 33947 ft | 459 kts | 27° |
| 2026-05-06 15:43 | -30.85026 | 115.83777 | 34362 ft | 458 kts | 27° |
| 2026-05-06 15:43 | -30.82101 | 115.85249 | 34709 ft | 458 kts | 18° |
| 2026-05-06 15:43 | -30.79024 | 115.86187 | 35023 ft | 458 kts | 9° |
| 2026-05-06 15:43 | -30.75856 | 115.86610 | 35328 ft | 458 kts | 4° |
| 2026-05-06 15:44 | -30.72684 | 115.86923 | 35623 ft | 458 kts | 4° |
| 2026-05-06 15:44 | -30.69508 | 115.87241 | 35907 ft | 458 kts | 4° |
| 2026-05-06 15:44 | -30.66328 | 115.87567 | 36203 ft | 458 kts | 4° |
| 2026-05-06 15:44 | -30.63152 | 115.87897 | 36479 ft | 459 kts | 4° |
| 2026-05-06 15:45 | -30.59965 | 115.88231 | 36753 ft | 459 kts | 4° |
| 2026-05-06 15:45 | -30.56780 | 115.88569 | 37021 ft | 459 kts | 4° |
| 2026-05-06 15:45 | -30.53629 | 115.88899 | 37278 ft | 460 kts | 3° |
| 2026-05-06 15:45 | -30.50439 | 115.89226 | 37396 ft | 461 kts | 3° |
| 2026-05-06 15:46 | -30.44051 | 115.89879 | 37405 ft | 461 kts | 3° |
| 2026-05-06 15:46 | -30.37655 | 115.90533 | 37405 ft | 461 kts | 3° |
| 2026-05-06 15:47 | -30.31257 | 115.91189 | 37398 ft | 461 kts | 3° |
| 2026-05-06 15:47 | -30.24863 | 115.91844 | 37409 ft | 461 kts | 3° |
| 2026-05-06 15:48 | -30.18455 | 115.92496 | 37416 ft | 462 kts | 3° |
| 2026-05-06 15:48 | -30.12051 | 115.93148 | 37399 ft | 462 kts | 3° |
| 2026-05-06 15:49 | -30.05645 | 115.93802 | 37396 ft | 463 kts | 3° |
| 2026-05-06 15:49 | -29.99268 | 115.94450 | 37409 ft | 463 kts | 3° |
| 2026-05-06 15:50 | -29.92849 | 115.95102 | 37411 ft | 463 kts | 3° |
| 2026-05-06 15:50 | -29.86426 | 115.95761 | 37407 ft | 463 kts | 2° |
| 2026-05-06 15:51 | -29.79999 | 115.96408 | 37407 ft | 463 kts | 2° |
| 2026-05-06 15:51 | -29.73568 | 115.97056 | 37407 ft | 463 kts | 2° |
| 2026-05-06 15:52 | -29.67144 | 115.97699 | 37401 ft | 463 kts | 2° |
| 2026-05-06 15:52 | -29.60713 | 115.98347 | 37387 ft | 463 kts | 2° |
| 2026-05-06 15:53 | -29.54279 | 115.99004 | 37384 ft | 464 kts | 2° |
| 2026-05-06 15:53 | -29.47852 | 115.99656 | 37387 ft | 464 kts | 2° |
| 2026-05-06 15:54 | -29.41463 | 116.00295 | 37393 ft | 464 kts | 2° |
| 2026-05-06 15:54 | -29.35346 | 116.00915 | 37374 ft | 464 kts | 2° |
| 2026-05-06 15:55 | -29.28913 | 116.01554 | 37376 ft | 464 kts | 2° |
| 2026-05-06 15:55 | -29.22524 | 116.02281 | 37381 ft | 466 kts | 8° |
| 2026-05-06 15:56 | -29.16362 | 116.04668 | 37375 ft | 470 kts | 22° |
| 2026-05-06 15:56 | -29.10352 | 116.07649 | 37358 ft | 471 kts | 22° |
| 2026-05-06 15:57 | -29.04364 | 116.10701 | 37355 ft | 472 kts | 22° |
| 2026-05-06 15:57 | -28.98365 | 116.13772 | 37362 ft | 472 kts | 22° |
| 2026-05-06 15:58 | -28.93358 | 116.16313 | 37359 ft | 473 kts | 22° |
| 2026-05-06 15:58 | -28.87339 | 116.19356 | 37362 ft | 473 kts | 22° |
| 2026-05-06 15:59 | -28.81316 | 116.22393 | 37343 ft | 473 kts | 21° |
| 2026-05-06 15:59 | -28.75284 | 116.25432 | 37351 ft | 474 kts | 21° |
| 2026-05-06 16:00 | -28.69231 | 116.28478 | 37363 ft | 475 kts | 21° |
| 2026-05-06 16:00 | -28.63190 | 116.31519 | 37370 ft | 475 kts | 21° |
| 2026-05-06 16:01 | -28.57182 | 116.34531 | 37373 ft | 475 kts | 21° |
| 2026-05-06 16:01 | -28.51129 | 116.37553 | 37356 ft | 475 kts | 21° |
| 2026-05-06 16:02 | -28.45078 | 116.40582 | 37356 ft | 475 kts | 21° |
| 2026-05-06 16:02 | -28.39033 | 116.43614 | 37359 ft | 476 kts | 21° |
| 2026-05-06 16:03 | -28.32963 | 116.46654 | 37354 ft | 476 kts | 21° |
| 2026-05-06 16:03 | -28.26888 | 116.49692 | 37356 ft | 477 kts | 21° |
| 2026-05-06 16:04 | -28.20818 | 116.52721 | 37349 ft | 477 kts | 21° |
| 2026-05-06 16:04 | -28.14734 | 116.55744 | 37351 ft | 477 kts | 20° |
| 2026-05-06 16:05 | -28.08778 | 116.58693 | 37360 ft | 477 kts | 20° |
| 2026-05-06 16:05 | -28.02689 | 116.61700 | 37362 ft | 477 kts | 20° |
| 2026-05-06 16:06 | -27.96609 | 116.64728 | 37359 ft | 477 kts | 21° |
| 2026-05-06 16:06 | -27.90528 | 116.67745 | 37360 ft | 477 kts | 20° |
| 2026-05-06 16:07 | -27.84449 | 116.70751 | 37357 ft | 477 kts | 20° |
| 2026-05-06 16:07 | -27.78401 | 116.73729 | 37358 ft | 477 kts | 20° |
| 2026-05-06 16:08 | -27.72311 | 116.76724 | 37351 ft | 477 kts | 20° |
| 2026-05-06 16:08 | -27.66224 | 116.79721 | 37352 ft | 477 kts | 20° |
| 2026-05-06 16:09 | -27.60139 | 116.82724 | 37334 ft | 477 kts | 20° |
| 2026-05-06 16:09 | -27.54047 | 116.85728 | 37336 ft | 478 kts | 20° |
| 2026-05-06 16:10 | -27.50011 | 116.87707 | 37341 ft | 478 kts | 20° |
| 2026-05-06 16:11 | -27.49872 | 116.87775 | 37341 ft | 478 kts | 20° |
| 2026-05-06 16:11 | -27.48371 | 116.88512 | 37339 ft | 478 kts | 20° |
| 2026-05-06 16:12 | -27.42897 | 116.91193 | 37341 ft | 478 kts | 20° |
| 2026-05-06 16:12 | -27.37727 | 116.93729 | 37337 ft | 479 kts | 20° |
| 2026-05-06 16:13 | -27.32056 | 116.96508 | 37326 ft | 479 kts | 20° |
| 2026-05-06 16:13 | -27.25940 | 116.99498 | 37329 ft | 479 kts | 20° |
| 2026-05-06 16:14 | -27.21829 | 117.01509 | 37332 ft | 479 kts | 20° |
| 2026-05-06 16:14 | -27.15709 | 117.04492 | 37333 ft | 479 kts | 20° |
| 2026-05-06 16:15 | -27.09579 | 117.07468 | 37335 ft | 480 kts | 20° |
| 2026-05-06 16:15 | -27.03453 | 117.10454 | 37306 ft | 480 kts | 20° |
| 2026-05-06 16:16 | -26.97331 | 117.13437 | 37317 ft | 480 kts | 19° |
| 2026-05-06 16:16 | -26.91196 | 117.16407 | 37317 ft | 481 kts | 19° |
| 2026-05-06 16:17 | -26.85057 | 117.19373 | 37327 ft | 481 kts | 19° |
| 2026-05-06 16:17 | -26.78917 | 117.22343 | 37325 ft | 480 kts | 19° |
| 2026-05-06 16:18 | -26.72787 | 117.25314 | 37309 ft | 480 kts | 19° |
| 2026-05-06 16:18 | -26.66653 | 117.28278 | 37311 ft | 480 kts | 19° |
| 2026-05-06 16:19 | -26.60509 | 117.31242 | 37313 ft | 480 kts | 19° |
| 2026-05-06 16:19 | -26.54375 | 117.34201 | 37315 ft | 480 kts | 19° |
| 2026-05-06 16:20 | -26.48236 | 117.37154 | 37310 ft | 481 kts | 19° |
| 2026-05-06 16:20 | -26.42089 | 117.40107 | 37288 ft | 481 kts | 19° |
| 2026-05-06 16:21 | -26.35984 | 117.43040 | 37293 ft | 481 kts | 19° |
| 2026-05-06 16:21 | -26.29835 | 117.45995 | 37292 ft | 482 kts | 19° |
| 2026-05-06 16:22 | -26.23669 | 117.48957 | 37304 ft | 482 kts | 19° |
| 2026-05-06 16:22 | -26.17507 | 117.51902 | 37301 ft | 481 kts | 19° |
| 2026-05-06 16:23 | -26.11341 | 117.54792 | 37275 ft | 480 kts | 16° |
| 2026-05-06 16:23 | -26.05104 | 117.57253 | 37275 ft | 478 kts | 13° |
| 2026-05-06 16:24 | -25.98775 | 117.59515 | 37281 ft | 478 kts | 12° |
| 2026-05-06 16:24 | -25.92451 | 117.61833 | 37285 ft | 479 kts | 13° |
| 2026-05-06 16:25 | -25.86135 | 117.64238 | 37286 ft | 479 kts | 14° |
| 2026-05-06 16:25 | -25.79823 | 117.66654 | 37257 ft | 480 kts | 13° |
| 2026-05-06 16:26 | -25.73499 | 117.69060 | 37266 ft | 481 kts | 13° |
| 2026-05-06 16:26 | -25.67171 | 117.71449 | 37267 ft | 481 kts | 13° |
| 2026-05-06 16:27 | -25.60854 | 117.73827 | 37269 ft | 481 kts | 13° |
| 2026-05-06 16:27 | -25.54514 | 117.76221 | 37269 ft | 482 kts | 13° |
| 2026-05-06 16:28 | -25.48168 | 117.78622 | 37253 ft | 482 kts | 13° |
| 2026-05-06 16:28 | -25.41813 | 117.81016 | 37250 ft | 483 kts | 13° |
| 2026-05-06 16:29 | -25.35453 | 117.83405 | 37250 ft | 483 kts | 13° |
| 2026-05-06 16:29 | -25.29083 | 117.85801 | 37254 ft | 483 kts | 13° |
| 2026-05-06 16:30 | -25.23793 | 117.87789 | 37248 ft | 483 kts | 13° |
| 2026-05-06 16:30 | -25.16335 | 117.90589 | 37217 ft | 485 kts | 12° |
| 2026-05-06 16:31 | -25.09930 | 117.92996 | 37222 ft | 487 kts | 12° |
| 2026-05-06 16:31 | -25.03549 | 117.95381 | 36538 ft | 490 kts | 12° |
| 2026-05-06 16:32 | -25.00329 | 117.96583 | 36054 ft | 488 kts | 13° |
| 2026-05-06 16:32 | -24.97131 | 117.97780 | 35539 ft | 486 kts | 13° |
| 2026-05-06 16:32 | -24.93935 | 117.98975 | 35027 ft | 484 kts | 13° |
| 2026-05-06 16:32 | -24.90752 | 118.00164 | 34503 ft | 483 kts | 13° |
| 2026-05-06 16:33 | -24.87566 | 118.01356 | 33919 ft | 482 kts | 13° |
| 2026-05-06 16:33 | -24.84401 | 118.02536 | 33392 ft | 478 kts | 14° |
| 2026-05-06 16:33 | -24.81264 | 118.03702 | 32864 ft | 474 kts | 14° |
| 2026-05-06 16:34 | -24.75057 | 118.06009 | 31927 ft | 465 kts | 14° |
| 2026-05-06 16:34 | -24.72003 | 118.07144 | 31421 ft | 461 kts | 15° |
| 2026-05-06 16:34 | -24.68987 | 118.08266 | 31057 ft | 454 kts | 15° |
| 2026-05-06 16:34 | -24.66003 | 118.09377 | 30570 ft | 451 kts | 15° |
| 2026-05-06 16:35 | -24.63045 | 118.10477 | 30066 ft | 445 kts | 15° |
| 2026-05-06 16:35 | -24.60144 | 118.11554 | 29352 ft | 434 kts | 16° |
| 2026-05-06 16:35 | -24.57305 | 118.12611 | 28970 ft | 428 kts | 16° |
| 2026-05-06 16:35 | -24.54497 | 118.13658 | 28538 ft | 424 kts | 16° |
| 2026-05-06 16:36 | -24.51710 | 118.14667 | 28131 ft | 419 kts | 15° |
| 2026-05-06 16:36 | -24.48934 | 118.15602 | 27742 ft | 415 kts | 14° |
| 2026-05-06 16:36 | -24.46157 | 118.16492 | 27345 ft | 412 kts | 13° |
| 2026-05-06 16:36 | -24.43444 | 118.17344 | 26948 ft | 410 kts | 13° |
| 2026-05-06 16:37 | -24.40710 | 118.18203 | 26549 ft | 408 kts | 14° |
| 2026-05-06 16:37 | -24.37984 | 118.19068 | 26122 ft | 407 kts | 14° |
| 2026-05-06 16:37 | -24.35274 | 118.19940 | 25702 ft | 406 kts | 14° |
| 2026-05-06 16:37 | -24.32569 | 118.20819 | 25274 ft | 405 kts | 14° |
| 2026-05-06 16:38 | -24.29873 | 118.21700 | 24843 ft | 404 kts | 15° |
| 2026-05-06 16:38 | -24.27177 | 118.22582 | 24404 ft | 403 kts | 15° |
| 2026-05-06 16:38 | -24.24488 | 118.23463 | 23954 ft | 403 kts | 15° |
| 2026-05-06 16:38 | -24.21807 | 118.24339 | 23603 ft | 399 kts | 15° |
| 2026-05-06 16:39 | -24.19141 | 118.25206 | 23057 ft | 399 kts | 15° |
| 2026-05-06 16:39 | -24.16500 | 118.26064 | 22617 ft | 395 kts | 15° |
| 2026-05-06 16:39 | -24.13873 | 118.26919 | 22267 ft | 390 kts | 15° |
| 2026-05-06 16:39 | -24.11288 | 118.27761 | 21684 ft | 384 kts | 15° |
| 2026-05-06 16:40 | -24.08776 | 118.28577 | 21247 ft | 369 kts | 15° |
| 2026-05-06 16:40 | -24.06364 | 118.29360 | 20834 ft | 355 kts | 16° |
| 2026-05-06 16:40 | -24.04035 | 118.30113 | 20426 ft | 343 kts | 16° |
| 2026-05-06 16:40 | -24.01791 | 118.30837 | 20037 ft | 331 kts | 15° |
| 2026-05-06 16:41 | -23.99608 | 118.31542 | 19664 ft | 331 kts | 16° |
| 2026-05-06 16:41 | -23.97401 | 118.32258 | 19280 ft | 331 kts | 16° |
| 2026-05-06 16:41 | -23.95188 | 118.32978 | 18887 ft | 332 kts | 16° |
| 2026-05-06 16:41 | -23.92973 | 118.33700 | 18496 ft | 333 kts | 17° |
| 2026-05-06 16:42 | -23.90750 | 118.34422 | 18052 ft | 333 kts | 17° |
| 2026-05-06 16:42 | -23.88535 | 118.35139 | 17659 ft | 331 kts | 17° |
| 2026-05-06 16:42 | -23.86330 | 118.35851 | 17261 ft | 330 kts | 17° |
| 2026-05-06 16:42 | -23.84134 | 118.36563 | 16875 ft | 329 kts | 17° |
| 2026-05-06 16:43 | -23.81943 | 118.37272 | 16484 ft | 328 kts | 17° |
| 2026-05-06 16:43 | -23.79758 | 118.37979 | 16088 ft | 327 kts | 17° |
| 2026-05-06 16:43 | -23.77582 | 118.38680 | 15692 ft | 326 kts | 17° |
| 2026-05-06 16:43 | -23.75410 | 118.39378 | 15306 ft | 325 kts | 17° |
| 2026-05-06 16:44 | -23.73240 | 118.40077 | 14912 ft | 325 kts | 17° |
| 2026-05-06 16:44 | -23.71067 | 118.40776 | 14514 ft | 325 kts | 16° |
| 2026-05-06 16:44 | -23.68900 | 118.41474 | 14113 ft | 325 kts | 17° |
| 2026-05-06 16:44 | -23.66757 | 118.42164 | 13676 ft | 324 kts | 17° |
| 2026-05-06 16:45 | -23.64597 | 118.42858 | 13268 ft | 323 kts | 17° |
| 2026-05-06 16:45 | -23.62448 | 118.43550 | 12857 ft | 321 kts | 17° |
| 2026-05-06 16:45 | -23.60313 | 118.44238 | 12452 ft | 319 kts | 17° |
| 2026-05-06 16:45 | -23.58193 | 118.44923 | 12041 ft | 317 kts | 17° |
| 2026-05-06 16:46 | -23.56085 | 118.45603 | 11630 ft | 315 kts | 17° |
| 2026-05-06 16:46 | -23.53989 | 118.46277 | 11264 ft | 312 kts | 17° |
| 2026-05-06 16:46 | -23.51921 | 118.46942 | 10854 ft | 310 kts | 17° |
| 2026-05-06 16:46 | -23.49871 | 118.47602 | 10561 ft | 304 kts | 17° |
| 2026-05-06 16:47 | -23.48536 | 118.48033 | 10374 ft | 301 kts | 17° |
| 2026-05-06 16:47 | -23.46532 | 118.48680 | 10034 ft | 298 kts | 17° |
| 2026-05-06 16:47 | -23.44584 | 118.49306 | 9840 ft | 284 kts | 17° |
| 2026-05-06 16:47 | -23.42705 | 118.49906 | 9223 ft | 279 kts | 18° |
| 2026-05-06 16:48 | -23.40862 | 118.50496 | 8658 ft | 273 kts | 18° |
| 2026-05-06 16:48 | -23.39063 | 118.51072 | 8359 ft | 267 kts | 18° |
| 2026-05-06 16:48 | -23.37316 | 118.51632 | 8273 ft | 256 kts | 19° |
| 2026-05-06 16:48 | -23.35652 | 118.52163 | 8165 ft | 241 kts | 19° |
| 2026-05-06 16:49 | -23.34074 | 118.52667 | 8067 ft | 232 kts | 19° |
| 2026-05-06 16:49 | -23.32532 | 118.53059 | 7967 ft | 226 kts | 8° |
| 2026-05-06 16:49 | -23.30951 | 118.52973 | 7694 ft | 231 kts | 355° |
| 2026-05-06 16:49 | -23.29367 | 118.52685 | 7380 ft | 231 kts | 355° |
| 2026-05-06 16:50 | -23.27786 | 118.52401 | 7068 ft | 230 kts | 356° |
| 2026-05-06 16:50 | -23.26207 | 118.52123 | 6770 ft | 229 kts | 359° |
| 2026-05-06 16:50 | -23.24674 | 118.52248 | 6468 ft | 217 kts | 26° |
| 2026-05-06 16:50 | -23.23472 | 118.53136 | 6176 ft | 206 kts | 52° |
| 2026-05-06 16:51 | -23.22724 | 118.54445 | 5912 ft | 203 kts | 61° |
| 2026-05-06 16:51 | -23.22033 | 118.55775 | 5649 ft | 201 kts | 62° |
| 2026-05-06 16:51 | -23.21348 | 118.57091 | 5374 ft | 199 kts | 62° |
| 2026-05-06 16:51 | -23.20668 | 118.58395 | 5126 ft | 196 kts | 63° |
| 2026-05-06 16:52 | -23.20021 | 118.59632 | 4866 ft | 180 kts | 63° |
| 2026-05-06 16:52 | -23.19431 | 118.60760 | 4638 ft | 163 kts | 63° |
| 2026-05-06 16:52 | -23.18897 | 118.61778 | 4384 ft | 148 kts | 64° |
| 2026-05-06 16:52 | -23.18406 | 118.62718 | 4190 ft | 141 kts | 64° |
| 2026-05-06 16:53 | -23.17927 | 118.63638 | 3976 ft | 139 kts | 66° |
| 2026-05-06 16:53 | -23.17454 | 118.64547 | 3782 ft | 137 kts | 66° |
| 2026-05-06 16:53 | -23.16986 | 118.65446 | 3574 ft | 136 kts | 66° |
| 2026-05-06 16:53 | -23.16523 | 118.66338 | 3323 ft | 135 kts | 67° |
| 2026-05-06 16:54 | -23.16059 | 118.67238 | 3132 ft | 141 kts | 66° |
| 2026-05-06 16:54 | -23.15592 | 118.68175 | 2800 ft | 137 kts | 66° |
| 2026-05-06 16:54 | -23.15110 | 118.69043 | 2592 ft | 135 kts | 57° |
| 2026-05-06 16:54 | -23.14456 | 118.69794 | 2410 ft | 136 kts | 53° |
| 2026-05-06 16:55 | -23.13829 | 118.70497 | 2306 ft | 115 kts | 46° |
| 2026-05-06 16:55 | -23.13430 | 118.70928 | 2303 ft | 39 kts | 45° |
| 2026-05-06 16:55 | -23.13330 | 118.71034 | 2298 ft | 4 kts | 72° |
| 2026-05-06 16:55 | -23.13340 | 118.71031 | 2304 ft | 1 kts | 234° |
| 2026-05-06 16:56 | -23.13375 | 118.70990 | 2302 ft | 16 kts | 225° |
| 2026-05-06 16:56 | -23.13503 | 118.70850 | 2308 ft | 33 kts | 225° |
| 2026-05-06 16:56 | -23.13643 | 118.70692 | 2306 ft | 27 kts | 225° |
| 2026-05-06 16:56 | -23.13735 | 118.70584 | 2302 ft | 10 kts | 257° |
| 2026-05-06 16:57 | -23.13701 | 118.70532 | 2303 ft | 8 kts | 315° |
| 2026-05-06 16:57 | -23.13692 | 118.70474 | 2310 ft | 9 kts | 254° |
| 2026-05-06 16:57 | -23.13708 | 118.70422 | 2309 ft | 3 kts | 316° |
| 2026-05-06 16:57 | -23.13696 | 118.70417 | 2309 ft | 0 kts | 333° |
| 2026-05-06 16:58 | -23.13696 | 118.70416 | 2309 ft | 0 kts | 333° |